createdAt,value
2022-10-31T00:02:00.028Z,100.00
2022-10-31T00:04:31.932Z,100.00
2022-10-31T00:07:03.567Z,100.00
2022-10-31T00:09:35.262Z,100.00
2022-10-31T00:12:07.572Z,100.00
2022-10-31T00:14:39.691Z,100.00
2022-10-31T00:17:11.615Z,100.00
2022-10-31T00:19:43.358Z,100.00
2022-10-31T00:22:15.118Z,100.00
2022-10-31T00:24:46.788Z,100.00
2022-10-31T00:27:18.449Z,100.00
2022-10-31T00:29:49.805Z,100.00
2022-10-31T00:32:21.757Z,100.00
2022-10-31T00:34:53.641Z,100.00
2022-10-31T00:37:25.432Z,100.00
2022-10-31T00:39:57.122Z,99.50
2022-10-31T00:42:28.815Z,98.85
2022-10-31T00:45:02.841Z,98.74
2022-10-31T00:47:34.629Z,99.72
2022-10-31T00:50:06.987Z,100.00
2022-10-31T00:52:39.004Z,100.00
2022-10-31T00:55:11.312Z,100.00
2022-10-31T00:57:42.965Z,100.00
2022-10-31T01:00:16.651Z,100.00
2022-10-31T01:02:48.571Z,100.00
2022-10-31T01:05:20.655Z,100.00
2022-10-31T01:07:52.640Z,99.98
2022-10-31T01:10:24.552Z,99.81
2022-10-31T01:12:57.355Z,99.58
2022-10-31T01:15:29.377Z,98.79
2022-10-31T01:18:01.371Z,98.20
2022-10-31T01:20:35.573Z,99.55
2022-10-31T01:23:07.555Z,100.00
2022-10-31T01:25:39.752Z,100.00
2022-10-31T01:28:11.475Z,100.00
2022-10-31T01:30:43.137Z,99.87
2022-10-31T01:33:14.792Z,100.00
2022-10-31T01:35:48.856Z,100.00
2022-10-31T01:38:20.603Z,100.00
2022-10-31T01:40:52.560Z,100.00
2022-10-31T01:43:24.231Z,100.00
2022-10-31T01:45:56.974Z,100.00
2022-10-31T01:48:29.173Z,100.00
2022-10-31T01:51:01.069Z,100.00
2022-10-31T01:53:33.017Z,100.00
2022-10-31T01:56:05.125Z,100.00
2022-10-31T01:58:37.320Z,100.00
2022-10-31T02:01:09.271Z,100.00
2022-10-31T02:03:41.665Z,100.00
2022-10-31T02:06:22.863Z,100.00
2022-10-31T02:08:55.726Z,100.00
2022-10-31T02:11:27.916Z,100.00
2022-10-31T02:14:00.303Z,99.94
2022-10-31T02:16:32.231Z,99.65
2022-10-31T02:19:04.622Z,99.73
2022-10-31T02:21:44.976Z,100.00
2022-10-31T02:24:45.647Z,100.00
2022-10-31T02:27:43.329Z,100.00
2022-10-31T02:30:20.520Z,100.00
2022-10-31T02:33:16.957Z,100.00
2022-10-31T02:35:59.442Z,100.00
2022-10-31T02:38:41.153Z,100.00
2022-10-31T02:41:21.990Z,100.00
2022-10-31T02:44:05.886Z,100.00
2022-10-31T02:46:42.104Z,100.00
2022-10-31T02:49:25.306Z,100.00
2022-10-31T02:51:57.656Z,100.00
2022-10-31T02:54:31.074Z,100.00
2022-10-31T02:57:08.693Z,99.99
2022-10-31T02:59:47.781Z,99.58
2022-10-31T03:02:51.176Z,99.24
2022-10-31T03:05:37.461Z,99.25
2022-10-31T03:08:18.014Z,99.88
2022-10-31T03:10:55.461Z,100.00
2022-10-31T03:13:34.723Z,100.00
2022-10-31T03:16:13.772Z,100.00
2022-10-31T03:18:52.053Z,100.00
2022-10-31T03:21:28.342Z,100.00
2022-10-31T03:24:01.599Z,100.00
2022-10-31T03:26:35.421Z,100.00
2022-10-31T03:29:09.925Z,100.00
2022-10-31T03:31:53.120Z,100.00
2022-10-31T03:34:27.755Z,100.00
2022-10-31T03:37:04.306Z,100.00
2022-10-31T03:39:38.441Z,100.00
2022-10-31T03:42:14.061Z,100.00
2022-10-31T03:44:52.733Z,100.00
2022-10-31T03:47:25.152Z,100.00
2022-10-31T03:49:57.936Z,100.00
2022-10-31T03:52:36.527Z,100.00
2022-10-31T03:55:15.773Z,100.00
2022-10-31T03:57:55.097Z,100.00
2022-10-31T04:00:28.742Z,100.00
2022-10-31T04:03:05.670Z,100.00
2022-10-31T04:05:39.600Z,100.00
2022-10-31T04:08:16.377Z,100.00
2022-10-31T04:10:51.776Z,100.00
2022-10-31T04:13:29.131Z,100.00
2022-10-31T04:16:17.346Z,100.00
2022-10-31T04:18:49.484Z,100.00
2022-10-31T04:21:21.594Z,100.00
2022-10-31T04:23:53.852Z,100.00
2022-10-31T04:26:30.105Z,100.00
2022-10-31T04:29:01.224Z,100.00
2022-10-31T04:31:32.892Z,100.00
2022-10-31T04:34:04.557Z,100.00
2022-10-31T04:36:36.362Z,100.00
2022-10-31T04:39:08.047Z,100.00
2022-10-31T04:42:00.237Z,100.00
2022-10-31T04:44:31.909Z,100.00
2022-10-31T04:47:05.496Z,100.00
2022-10-31T04:49:37.209Z,100.00
2022-10-31T04:52:09.216Z,100.00
2022-10-31T04:54:40.901Z,100.00
2022-10-31T04:57:45.631Z,100.00
2022-10-31T05:00:20.831Z,100.00
2022-10-31T05:02:56.703Z,100.00
2022-10-31T05:05:32.934Z,100.00
2022-10-31T05:08:06.937Z,100.00
2022-10-31T05:10:38.622Z,100.00
2022-10-31T05:13:10.468Z,100.00
2022-10-31T05:16:05.069Z,100.00
2022-10-31T05:18:56.693Z,100.00
2022-10-31T05:21:53.459Z,100.00
2022-10-31T05:24:25.362Z,100.00
2022-10-31T05:26:57.872Z,100.00
2022-10-31T05:29:29.599Z,100.00
2022-10-31T05:32:01.290Z,100.00
2022-10-31T05:35:10.163Z,100.00
2022-10-31T05:38:01.447Z,100.00
2022-10-31T05:40:33.062Z,100.00
2022-10-31T05:43:04.707Z,100.00
2022-10-31T05:45:36.323Z,100.00
2022-10-31T05:48:11.855Z,100.00
2022-10-31T05:51:02.079Z,100.00
2022-10-31T05:53:33.711Z,100.00
2022-10-31T05:56:05.660Z,100.00
2022-10-31T05:58:37.604Z,100.00
2022-10-31T06:01:10.999Z,100.00
2022-10-31T06:03:43.104Z,100.00
2022-10-31T06:06:15.377Z,100.00
2022-10-31T06:08:47.022Z,100.00
2022-10-31T06:11:20.638Z,100.00
2022-10-31T06:14:15.174Z,100.00
2022-10-31T06:17:04.970Z,100.00
2022-10-31T06:22:26.585Z,100.00
2022-10-31T06:24:58.354Z,100.00
2022-10-31T06:27:40.279Z,100.00
2022-10-31T06:30:17.854Z,100.00
2022-10-31T06:32:51.563Z,100.00
2022-10-31T06:35:24.956Z,100.00
2022-10-31T06:37:57.574Z,100.00
2022-10-31T06:40:35.669Z,100.00
2022-10-31T06:43:36.598Z,100.00
2022-10-31T06:46:27.131Z,100.00
2022-10-31T06:49:19.070Z,100.00
2022-10-31T06:52:02.470Z,100.00
2022-10-31T06:54:34.396Z,100.00
2022-10-31T06:57:06.314Z,100.00
2022-10-31T06:59:38.075Z,100.00
2022-10-31T07:02:17.868Z,100.00
2022-10-31T07:04:49.618Z,100.00
2022-10-31T07:07:22.692Z,100.00
2022-10-31T07:09:55.509Z,100.00
2022-10-31T07:12:39.434Z,100.00
2022-10-31T07:15:12.289Z,100.00
2022-10-31T07:17:44.042Z,100.00
2022-10-31T07:20:19.047Z,100.00
2022-10-31T07:22:50.974Z,100.00
2022-10-31T07:25:21.914Z,100.00
2022-10-31T07:28:32.053Z,100.00
2022-10-31T07:31:04.647Z,100.00
2022-10-31T07:33:36.689Z,100.00
2022-10-31T07:36:37.443Z,100.00
2022-10-31T07:39:09.278Z,100.00
2022-10-31T07:41:41.022Z,100.00
2022-10-31T07:44:14.283Z,100.00
2022-10-31T07:47:04.813Z,100.00
2022-10-31T07:49:55.384Z,100.00
2022-10-31T07:52:46.156Z,100.00
2022-10-31T07:55:47.341Z,100.00
2022-10-31T07:58:20.003Z,100.00
2022-10-31T08:00:52.116Z,100.00
2022-10-31T08:03:30.890Z,100.00
2022-10-31T08:06:21.696Z,100.00
2022-10-31T08:09:12.096Z,100.00
2022-10-31T08:11:44.469Z,100.00
2022-10-31T08:14:16.641Z,100.00
2022-10-31T08:16:49.556Z,100.00
2022-10-31T08:19:22.810Z,100.00
2022-10-31T08:21:56.676Z,100.00
2022-10-31T08:24:28.751Z,100.00
2022-10-31T08:27:03.624Z,100.00
2022-10-31T08:29:35.949Z,100.00
2022-10-31T08:32:08.727Z,100.00
2022-10-31T08:35:00.036Z,100.00
2022-10-31T08:37:56.620Z,100.00
2022-10-31T08:40:31.838Z,100.00
2022-10-31T08:43:06.364Z,100.00
2022-10-31T08:45:38.820Z,100.00
2022-10-31T08:48:17.884Z,100.00
2022-10-31T08:50:50.443Z,100.00
2022-10-31T08:53:23.644Z,100.00
2022-10-31T08:56:03.790Z,100.00
2022-10-31T08:58:40.095Z,100.00
2022-10-31T09:01:12.483Z,100.00
2022-10-31T09:03:44.250Z,100.00
2022-10-31T09:06:16.194Z,100.00
2022-10-31T09:08:48.046Z,100.00
2022-10-31T09:11:19.652Z,100.00
2022-10-31T09:14:10.114Z,100.00
2022-10-31T09:16:44.556Z,100.00
2022-10-31T09:19:21.870Z,100.00
2022-10-31T09:21:56.598Z,100.00
2022-10-31T09:24:28.248Z,100.00
2022-10-31T09:27:01.741Z,100.00
2022-10-31T09:29:33.405Z,100.00
2022-10-31T09:32:05.645Z,100.00
2022-10-31T09:34:43.410Z,100.00
2022-10-31T09:37:16.757Z,100.00
2022-10-31T09:39:48.477Z,100.00
2022-10-31T09:42:44.516Z,100.00
2022-10-31T09:45:28.510Z,100.00
2022-10-31T09:48:15.182Z,100.00
2022-10-31T09:51:10.975Z,100.00
2022-10-31T09:54:04.119Z,100.00
2022-10-31T09:56:36.826Z,100.00
2022-10-31T09:59:19.380Z,100.00
2022-10-31T10:01:53.589Z,100.00
2022-10-31T10:04:40.297Z,100.00
2022-10-31T10:07:32.368Z,100.00
2022-10-31T10:10:39.950Z,100.00
2022-10-31T10:13:58.824Z,100.00
2022-10-31T10:16:53.431Z,100.00
2022-10-31T10:19:45.345Z,98.91
2022-10-31T10:22:23.309Z,98.70
2022-10-31T10:25:13.167Z,98.59
2022-10-31T10:27:53.568Z,97.92
2022-10-31T10:30:36.358Z,97.28
2022-10-31T10:33:13.393Z,96.52
2022-10-31T10:35:49.272Z,95.98
2022-10-31T10:38:29.487Z,95.89
2022-10-31T10:41:03.992Z,95.68
2022-10-31T10:43:38.158Z,94.63
2022-10-31T10:46:37.658Z,94.41
2022-10-31T10:49:20.217Z,92.83
2022-10-31T10:52:19.867Z,92.75
2022-10-31T10:55:03.429Z,92.13
2022-10-31T10:57:55.090Z,91.63
2022-10-31T11:00:29.702Z,90.90
2022-10-31T11:03:02.162Z,90.17
2022-10-31T11:05:36.247Z,89.11
2022-10-31T11:08:08.857Z,88.53
2022-10-31T11:10:41.203Z,87.46
2022-10-31T11:13:25.676Z,86.35
2022-10-31T11:16:04.768Z,86.51
2022-10-31T11:18:39.836Z,85.57
2022-10-31T11:21:24.300Z,84.99
2022-10-31T11:24:14.493Z,84.66
2022-10-31T11:26:48.624Z,84.58
2022-10-31T11:29:25.815Z,83.24
2022-10-31T11:32:01.036Z,82.47
2022-10-31T11:34:35.515Z,81.90
2022-10-31T11:37:17.941Z,80.56
2022-10-31T11:39:55.088Z,80.45
2022-10-31T11:42:31.278Z,79.75
2022-10-31T11:45:08.336Z,79.37
2022-10-31T11:47:43.654Z,78.49
2022-10-31T11:50:24.287Z,77.64
2022-10-31T11:52:57.484Z,76.99
2022-10-31T11:55:38.534Z,77.02
2022-10-31T11:58:24.420Z,76.16
2022-10-31T12:00:58.541Z,75.70
2022-10-31T12:03:42.763Z,75.51
2022-10-31T12:06:18.928Z,75.33
2022-10-31T12:08:50.814Z,75.05
2022-10-31T12:11:42.724Z,75.30
2022-10-31T12:14:25.417Z,74.98
2022-10-31T12:17:03.454Z,74.95
2022-10-31T12:19:43.414Z,75.43
2022-10-31T12:22:25.613Z,74.93
2022-10-31T12:25:13.512Z,75.12
2022-10-31T12:28:26.685Z,75.10
2022-10-31T12:31:10.460Z,75.60
2022-10-31T12:33:55.234Z,75.72
2022-10-31T12:36:40.756Z,76.50
2022-10-31T12:39:26.745Z,76.28
2022-10-31T12:42:08.060Z,76.01
2022-10-31T12:44:57.902Z,75.84
2022-10-31T12:47:43.654Z,76.53
2022-10-31T12:50:31.239Z,76.29
2022-10-31T12:56:03.605Z,75.86
2022-10-31T12:58:39.087Z,76.99
2022-10-31T13:01:16.889Z,77.71
2022-10-31T13:03:55.393Z,75.97
2022-10-31T13:06:44.358Z,75.51
2022-10-31T13:09:22.048Z,75.45
2022-10-31T13:11:59.209Z,76.07
2022-10-31T13:14:44.035Z,75.77
2022-10-31T13:17:24.137Z,75.56
2022-10-31T13:20:03.420Z,75.75
2022-10-31T13:22:37.614Z,76.63
2022-10-31T13:25:17.226Z,76.46
2022-10-31T13:27:56.262Z,76.10
2022-10-31T13:30:31.653Z,76.72
2022-10-31T13:33:10.487Z,76.72
2022-10-31T13:35:48.940Z,76.80
2022-10-31T13:38:31.847Z,77.08
2022-10-31T13:41:06.487Z,77.01
2022-10-31T13:43:56.764Z,76.91
2022-10-31T13:46:38.572Z,76.70
2022-10-31T13:49:26.138Z,77.18
2022-10-31T13:52:14.379Z,77.11
2022-10-31T13:54:48.625Z,77.86
2022-10-31T13:57:24.609Z,77.57
2022-10-31T14:00:00.353Z,77.89
2022-10-31T14:02:35.450Z,77.95
2022-10-31T14:05:26.338Z,78.22
2022-10-31T14:08:01.675Z,78.35
2022-10-31T14:10:38.569Z,78.09
2022-10-31T14:13:17.672Z,77.89
2022-10-31T14:15:59.222Z,78.01
2022-10-31T14:18:35.434Z,78.14
2022-10-31T14:21:29.283Z,78.96
2022-10-31T14:24:01.137Z,78.75
2022-10-31T14:26:37.982Z,79.26
2022-10-31T14:29:27.572Z,80.09
2022-10-31T14:32:08.708Z,80.01
2022-10-31T14:34:43.249Z,80.43
2022-10-31T14:37:47.481Z,79.75
2022-10-31T14:40:32.908Z,80.11
2022-10-31T14:43:35.780Z,80.71
2022-10-31T14:46:16.664Z,80.92
2022-10-31T14:49:12.645Z,81.06
2022-10-31T14:51:46.858Z,81.58
2022-10-31T14:54:23.886Z,81.88
2022-10-31T14:57:01.672Z,82.25
2022-10-31T14:59:37.362Z,82.10
2022-10-31T15:02:19.804Z,82.70
2022-10-31T15:04:53.266Z,83.90
2022-10-31T15:07:27.986Z,84.86
2022-10-31T15:10:02.061Z,85.46
2022-10-31T15:12:36.176Z,86.28
2022-10-31T15:15:20.788Z,87.43
2022-10-31T15:17:56.595Z,88.27
2022-10-31T15:20:30.200Z,88.37
2022-10-31T15:23:03.234Z,88.64
2022-10-31T15:25:37.153Z,89.33
2022-10-31T15:28:23.268Z,90.39
2022-10-31T15:30:57.014Z,91.28
2022-10-31T15:33:37.580Z,91.80
2022-10-31T15:36:25.625Z,91.85
2022-10-31T15:39:00.812Z,92.59
2022-10-31T15:41:36.365Z,93.97
2022-10-31T15:44:16.809Z,93.89
2022-10-31T15:46:56.746Z,93.86
2022-10-31T15:49:37.120Z,94.54
2022-10-31T15:52:17.916Z,95.56
2022-10-31T15:54:53.868Z,95.96
2022-10-31T15:57:27.197Z,96.81
2022-10-31T15:59:59.086Z,97.54
2022-10-31T16:02:31.038Z,98.56
2022-10-31T16:05:04.076Z,98.98
2022-10-31T16:07:36.048Z,99.09
2022-10-31T16:10:22.021Z,98.97
2022-10-31T16:12:54.414Z,98.41
2022-10-31T16:15:26.284Z,98.44
2022-10-31T16:18:01.571Z,98.57
2022-10-31T16:20:34.449Z,98.81
2022-10-31T16:23:06.364Z,99.03
2022-10-31T16:25:40.859Z,99.38
2022-10-31T16:28:20.401Z,99.80
2022-10-31T16:30:54.070Z,100.00
2022-10-31T16:33:34.166Z,99.91
2022-10-31T16:36:36.542Z,100.00
2022-10-31T16:39:09.347Z,100.00
2022-10-31T16:41:44.888Z,100.00
2022-10-31T16:44:23.617Z,100.00
2022-10-31T16:47:14.411Z,100.00
2022-10-31T16:49:50.900Z,100.00
2022-10-31T16:52:22.602Z,97.34
2022-10-31T16:54:55.171Z,99.54
2022-10-31T16:57:32.368Z,99.66
2022-10-31T17:00:05.490Z,99.25
2022-10-31T17:02:37.489Z,97.85
2022-10-31T17:05:13.520Z,97.07
2022-10-31T17:07:45.799Z,95.57
2022-10-31T17:10:20.210Z,92.76
2022-10-31T17:12:53.078Z,90.92
2022-10-31T17:15:27.009Z,88.13
2022-10-31T17:17:59.084Z,89.28
2022-10-31T17:20:33.044Z,93.04
2022-10-31T17:23:05.243Z,94.38
2022-10-31T17:25:37.409Z,95.29
2022-10-31T17:28:12.470Z,95.58
2022-10-31T17:30:45.349Z,95.82
2022-10-31T17:33:16.264Z,95.88
2022-10-31T17:35:48.136Z,96.65
2022-10-31T17:38:20.097Z,97.45
2022-10-31T17:40:51.895Z,98.67
2022-10-31T17:43:27.250Z,99.67
2022-10-31T17:46:01.859Z,100.00
2022-10-31T17:48:34.113Z,100.00
2022-10-31T17:51:07.221Z,100.00
2022-10-31T17:53:39.445Z,100.00
2022-10-31T17:56:12.557Z,100.00
2022-10-31T17:58:45.219Z,100.00
2022-10-31T18:01:18.678Z,100.00
2022-10-31T18:03:52.316Z,100.00
2022-10-31T18:06:24.804Z,100.00
2022-10-31T18:08:58.132Z,100.00
2022-10-31T18:11:29.931Z,100.00
2022-10-31T18:14:02.020Z,100.00
2022-10-31T18:16:34.099Z,100.00
2022-10-31T18:19:06.088Z,100.00
2022-10-31T18:21:38.271Z,100.00
2022-10-31T18:24:11.957Z,100.00
2022-10-31T18:26:43.568Z,100.00
2022-10-31T18:29:15.598Z,100.00
2022-10-31T18:31:49.598Z,100.00
2022-10-31T18:34:21.715Z,100.00
2022-10-31T18:36:53.711Z,100.00
2022-10-31T18:39:25.716Z,100.00
2022-10-31T18:41:58.212Z,100.00
2022-10-31T18:44:30.769Z,100.00
2022-10-31T18:47:02.567Z,100.00
2022-10-31T18:49:34.396Z,100.00
2022-10-31T18:52:06.827Z,100.00
2022-10-31T18:54:38.690Z,100.00
2022-10-31T18:57:10.457Z,100.00
2022-10-31T18:59:42.246Z,100.00
2022-10-31T19:02:15.865Z,100.00
2022-10-31T19:04:47.772Z,100.00
2022-10-31T19:07:19.817Z,100.00
2022-10-31T19:09:51.574Z,100.00
2022-10-31T19:12:25.762Z,100.00
2022-10-31T19:14:57.580Z,100.00
2022-10-31T19:17:29.436Z,100.00
2022-10-31T19:20:01.168Z,100.00
2022-10-31T19:22:34.421Z,100.00
2022-10-31T19:25:10.585Z,100.00
2022-10-31T19:27:43.253Z,100.00
2022-10-31T19:30:17.054Z,100.00
2022-10-31T19:32:48.890Z,100.00
2022-10-31T19:35:20.709Z,100.00
2022-10-31T19:37:52.722Z,100.00
2022-10-31T19:40:24.748Z,100.00
2022-10-31T19:42:56.941Z,100.00
2022-10-31T19:45:29.637Z,100.00
2022-10-31T19:48:04.045Z,100.00
2022-10-31T19:50:37.153Z,100.00
2022-10-31T19:53:08.790Z,100.00
2022-10-31T19:55:45.702Z,100.00
2022-10-31T19:58:18.681Z,100.00
2022-10-31T20:00:51.429Z,100.00
2022-10-31T20:03:24.401Z,100.00
2022-10-31T20:05:57.060Z,100.00
2022-10-31T20:08:28.948Z,100.00
2022-10-31T20:11:05.940Z,100.00
2022-10-31T20:13:39.300Z,100.00
2022-10-31T20:16:13.928Z,100.00
2022-10-31T20:18:48.084Z,100.00
2022-10-31T20:21:26.517Z,100.00
2022-10-31T20:24:00.623Z,100.00
2022-10-31T20:26:36.402Z,100.00
2022-10-31T20:29:09.570Z,100.00
2022-10-31T20:31:41.697Z,100.00
2022-10-31T20:34:13.982Z,100.00
2022-10-31T20:36:46.727Z,100.00
2022-10-31T20:39:17.066Z,100.00
2022-10-31T20:41:51.631Z,100.00
2022-10-31T20:44:24.382Z,100.00
2022-10-31T20:47:00.785Z,100.00
2022-10-31T20:49:34.719Z,100.00
2022-10-31T20:52:07.447Z,100.00
2022-10-31T20:54:39.495Z,100.00
2022-10-31T20:57:11.380Z,100.00
2022-10-31T20:59:43.650Z,100.00
2022-10-31T21:02:17.029Z,100.00
2022-10-31T21:04:49.659Z,100.00
2022-10-31T21:07:21.529Z,100.00
2022-10-31T21:09:53.628Z,100.00
2022-10-31T21:12:25.560Z,100.00
2022-10-31T21:14:57.702Z,100.00
2022-10-31T21:17:31.215Z,100.00
2022-10-31T21:20:04.798Z,100.00
2022-10-31T21:22:36.772Z,100.00
2022-10-31T21:25:10.859Z,100.00
2022-10-31T21:27:45.921Z,100.00
2022-10-31T21:30:16.859Z,100.00
2022-10-31T21:32:49.192Z,100.00
2022-10-31T21:35:21.448Z,100.00
2022-10-31T21:37:52.822Z,100.00
2022-10-31T21:40:25.340Z,100.00
2022-10-31T21:42:56.559Z,100.00
2022-10-31T21:45:28.744Z,100.00
2022-10-31T21:48:01.357Z,100.00
2022-10-31T21:50:34.968Z,100.00
2022-10-31T21:53:20.689Z,100.00
2022-10-31T21:55:52.771Z,100.00
2022-10-31T21:58:25.885Z,100.00
2022-10-31T22:01:01.369Z,100.00
2022-10-31T22:03:35.547Z,100.00
2022-10-31T22:06:09.010Z,100.00
2022-10-31T22:08:43.745Z,100.00
2022-10-31T22:11:17.668Z,100.00
2022-10-31T22:13:50.861Z,100.00
2022-10-31T22:16:24.663Z,100.00
2022-10-31T22:18:58.021Z,100.00
2022-10-31T22:21:30.444Z,100.00
2022-10-31T22:24:05.112Z,100.00
2022-10-31T22:26:40.488Z,100.00
2022-10-31T22:29:13.009Z,100.00
2022-10-31T22:31:48.464Z,100.00
2022-10-31T22:34:22.753Z,100.00
2022-10-31T22:36:56.662Z,100.00
2022-10-31T22:39:28.601Z,100.00
2022-10-31T22:42:00.446Z,100.00
2022-10-31T22:44:32.141Z,100.00
2022-10-31T22:47:04.254Z,100.00
2022-10-31T22:49:36.055Z,100.00
2022-10-31T22:52:08.060Z,100.00
2022-10-31T22:54:39.794Z,100.00
2022-10-31T22:57:11.646Z,100.00
2022-10-31T22:59:43.451Z,100.00
2022-10-31T23:02:15.329Z,100.00
2022-10-31T23:04:46.993Z,100.00
2022-10-31T23:07:23.121Z,100.00
2022-10-31T23:09:56.613Z,100.00
2022-10-31T23:12:48.292Z,100.00
2022-10-31T23:15:20.225Z,100.00
2022-10-31T23:17:51.870Z,100.00
2022-10-31T23:20:23.574Z,100.00
2022-10-31T23:22:55.143Z,100.00
2022-10-31T23:25:44.638Z,100.00
2022-10-31T23:28:16.366Z,100.00
2022-10-31T23:30:49.293Z,100.00
2022-10-31T23:33:21.101Z,100.00
2022-10-31T23:35:52.806Z,100.00
2022-10-31T23:38:24.498Z,100.00
2022-10-31T23:40:56.132Z,100.00
2022-10-31T23:43:27.845Z,100.00
2022-10-31T23:45:59.537Z,100.00
2022-10-31T23:48:31.383Z,100.00
2022-10-31T23:51:03.045Z,100.00
2022-10-31T23:56:06.770Z,100.00
2022-10-31T23:58:38.398Z,100.00
